sensor_id;sensor_type;location;lat;lon;timestamp;P1;durP1;ratioP1;P2;durP2;ratioP2
20908;SDS011;10614;53.198;6.570;2022-11-15T00:00:13;15.40;;;7.95;;
20908;SDS011;10614;53.198;6.570;2022-11-15T00:02:16;16.17;;;7.82;;
20908;SDS011;10614;53.198;6.570;2022-11-15T00:04:18;17.90;;;8.57;;
20908;SDS011;10614;53.198;6.570;2022-11-15T00:06:19;16.27;;;8.13;;
20908;SDS011;10614;53.198;6.570;2022-11-15T00:08:21;16.77;;;8.93;;
20908;SDS011;10614;53.198;6.570;2022-11-15T00:10:22;18.33;;;8.30;;
20908;SDS011;10614;53.198;6.570;2022-11-15T00:12:24;19.65;;;8.73;;
20908;SDS011;10614;53.198;6.570;2022-11-15T00:14:25;16.98;;;7.68;;
20908;SDS011;10614;53.198;6.570;2022-11-15T00:16:27;18.70;;;8.65;;
20908;SDS011;10614;53.198;6.570;2022-11-15T00:18:31;13.88;;;7.40;;
20908;SDS011;10614;53.198;6.570;2022-11-15T00:20:33;17.67;;;7.78;;
20908;SDS011;10614;53.198;6.570;2022-11-15T00:22:35;15.07;;;7.65;;
20908;SDS011;10614;53.198;6.570;2022-11-15T00:24:36;18.50;;;8.60;;
20908;SDS011;10614;53.198;6.570;2022-11-15T00:26:38;14.77;;;7.55;;
20908;SDS011;10614;53.198;6.570;2022-11-15T00:28:40;17.15;;;7.95;;
20908;SDS011;10614;53.198;6.570;2022-11-15T00:30:42;14.63;;;7.60;;
20908;SDS011;10614;53.198;6.570;2022-11-15T00:32:43;16.65;;;7.60;;
20908;SDS011;10614;53.198;6.570;2022-11-15T00:34:47;15.63;;;7.60;;
20908;SDS011;10614;53.198;6.570;2022-11-15T00:36:48;14.93;;;7.22;;
20908;SDS011;10614;53.198;6.570;2022-11-15T00:38:50;17.65;;;7.90;;
20908;SDS011;10614;53.198;6.570;2022-11-15T00:40:51;16.88;;;8.77;;
20908;SDS011;10614;53.198;6.570;2022-11-15T00:42:53;15.55;;;7.78;;
20908;SDS011;10614;53.198;6.570;2022-11-15T00:44:55;15.30;;;7.72;;
20908;SDS011;10614;53.198;6.570;2022-11-15T00:46:56;17.42;;;7.97;;
20908;SDS011;10614;53.198;6.570;2022-11-15T00:48:58;17.48;;;7.38;;
20908;SDS011;10614;53.198;6.570;2022-11-15T00:51:01;14.25;;;7.18;;
20908;SDS011;10614;53.198;6.570;2022-11-15T00:53:03;18.55;;;8.32;;
20908;SDS011;10614;53.198;6.570;2022-11-15T00:55:05;15.30;;;7.38;;
20908;SDS011;10614;53.198;6.570;2022-11-15T00:57:07;14.55;;;7.40;;
20908;SDS011;10614;53.198;6.570;2022-11-15T00:59:08;15.48;;;7.47;;
20908;SDS011;10614;53.198;6.570;2022-11-15T01:01:11;16.70;;;8.05;;
20908;SDS011;10614;53.198;6.570;2022-11-15T01:03:15;18.13;;;8.75;;
20908;SDS011;10614;53.198;6.570;2022-11-15T01:05:16;15.07;;;8.30;;
20908;SDS011;10614;53.198;6.570;2022-11-15T01:07:19;14.75;;;7.68;;
20908;SDS011;10614;53.198;6.570;2022-11-15T01:09:21;17.08;;;8.60;;
20908;SDS011;10614;53.198;6.570;2022-11-15T01:11:23;16.38;;;8.38;;
20908;SDS011;10614;53.198;6.570;2022-11-15T01:13:24;15.65;;;8.02;;
20908;SDS011;10614;53.198;6.570;2022-11-15T01:15:26;14.93;;;7.43;;
20908;SDS011;10614;53.198;6.570;2022-11-15T01:17:28;16.23;;;9.27;;
20908;SDS011;10614;53.198;6.570;2022-11-15T01:19:32;15.48;;;7.65;;
20908;SDS011;10614;53.198;6.570;2022-11-15T01:21:33;15.55;;;7.40;;
20908;SDS011;10614;53.198;6.570;2022-11-15T01:23:36;17.23;;;8.48;;
20908;SDS011;10614;53.198;6.570;2022-11-15T01:25:39;19.48;;;9.90;;
20908;SDS011;10614;53.198;6.570;2022-11-15T01:27:40;15.38;;;7.55;;
20908;SDS011;10614;53.198;6.570;2022-11-15T01:29:42;18.80;;;8.13;;
20908;SDS011;10614;53.198;6.570;2022-11-15T01:31:44;18.13;;;8.90;;
20908;SDS011;10614;53.198;6.570;2022-11-15T01:33:45;14.18;;;7.30;;
20908;SDS011;10614;53.198;6.570;2022-11-15T01:35:48;14.48;;;7.03;;
20908;SDS011;10614;53.198;6.570;2022-11-15T01:37:49;23.50;;;11.25;;
20908;SDS011;10614;53.198;6.570;2022-11-15T01:39:53;22.15;;;9.60;;
20908;SDS011;10614;53.198;6.570;2022-11-15T01:41:55;23.27;;;11.25;;
20908;SDS011;10614;53.198;6.570;2022-11-15T01:43:56;21.30;;;9.55;;
20908;SDS011;10614;53.198;6.570;2022-11-15T01:46:22;20.25;;;9.18;;
20908;SDS011;10614;53.198;6.570;2022-11-15T01:48:28;15.50;;;8.52;;
20908;SDS011;10614;53.198;6.570;2022-11-15T01:50:33;15.88;;;7.63;;
20908;SDS011;10614;53.198;6.570;2022-11-15T01:52:35;21.00;;;9.55;;
20908;SDS011;10614;53.198;6.570;2022-11-15T01:54:40;19.73;;;9.57;;
20908;SDS011;10614;53.198;6.570;2022-11-15T01:56:44;20.50;;;9.07;;
20908;SDS011;10614;53.198;6.570;2022-11-15T01:58:49;20.85;;;9.73;;
20908;SDS011;10614;53.198;6.570;2022-11-15T02:00:52;20.38;;;10.00;;
20908;SDS011;10614;53.198;6.570;2022-11-15T02:02:54;23.20;;;10.75;;
20908;SDS011;10614;53.198;6.570;2022-11-15T02:04:56;23.92;;;12.38;;
20908;SDS011;10614;53.198;6.570;2022-11-15T02:06:58;25.08;;;10.07;;
20908;SDS011;10614;53.198;6.570;2022-11-15T02:09:03;20.15;;;9.57;;
20908;SDS011;10614;53.198;6.570;2022-11-15T02:11:04;23.50;;;11.00;;
20908;SDS011;10614;53.198;6.570;2022-11-15T02:13:10;20.33;;;9.80;;
20908;SDS011;10614;53.198;6.570;2022-11-15T02:15:11;20.27;;;9.50;;
20908;SDS011;10614;53.198;6.570;2022-11-15T02:17:20;18.15;;;8.77;;
20908;SDS011;10614;53.198;6.570;2022-11-15T02:19:58;22.95;;;10.40;;
20908;SDS011;10614;53.198;6.570;2022-11-15T02:22:35;24.35;;;9.85;;
20908;SDS011;10614;53.198;6.570;2022-11-15T02:25:03;24.27;;;10.07;;
20908;SDS011;10614;53.198;6.570;2022-11-15T02:29:38;19.40;;;8.95;;
20908;SDS011;10614;53.198;6.570;2022-11-15T02:32:03;20.42;;;9.30;;
20908;SDS011;10614;53.198;6.570;2022-11-15T02:34:11;18.30;;;8.40;;
20908;SDS011;10614;53.198;6.570;2022-11-15T02:36:25;19.77;;;8.15;;
20908;SDS011;10614;53.198;6.570;2022-11-15T02:38:37;18.73;;;8.40;;
20908;SDS011;10614;53.198;6.570;2022-11-15T02:40:45;17.23;;;7.85;;
20908;SDS011;10614;53.198;6.570;2022-11-15T02:42:54;21.38;;;9.55;;
20908;SDS011;10614;53.198;6.570;2022-11-15T02:45:17;18.30;;;7.03;;
20908;SDS011;10614;53.198;6.570;2022-11-15T02:47:24;17.75;;;7.82;;
20908;SDS011;10614;53.198;6.570;2022-11-15T02:49:31;18.23;;;7.88;;
20908;SDS011;10614;53.198;6.570;2022-11-15T02:51:35;18.67;;;8.88;;
20908;SDS011;10614;53.198;6.570;2022-11-15T02:53:36;14.20;;;6.50;;
20908;SDS011;10614;53.198;6.570;2022-11-15T02:55:38;18.38;;;9.00;;
20908;SDS011;10614;53.198;6.570;2022-11-15T02:57:45;20.85;;;9.13;;
20908;SDS011;10614;53.198;6.570;2022-11-15T02:59:57;16.25;;;6.95;;
20908;SDS011;10614;53.198;6.570;2022-11-15T03:02:13;15.88;;;7.95;;
20908;SDS011;10614;53.198;6.570;2022-11-15T03:04:24;14.32;;;7.30;;
20908;SDS011;10614;53.198;6.570;2022-11-15T03:06:35;20.23;;;9.85;;
20908;SDS011;10614;53.198;6.570;2022-11-15T03:08:45;16.80;;;8.02;;
20908;SDS011;10614;53.198;6.570;2022-11-15T03:10:56;21.92;;;8.40;;
20908;SDS011;10614;53.198;6.570;2022-11-15T03:13:09;17.48;;;7.72;;
20908;SDS011;10614;53.198;6.570;2022-11-15T03:15:20;19.15;;;8.45;;
20908;SDS011;10614;53.198;6.570;2022-11-15T03:17:25;21.85;;;7.95;;
20908;SDS011;10614;53.198;6.570;2022-11-15T03:19:32;21.80;;;9.30;;
20908;SDS011;10614;53.198;6.570;2022-11-15T03:21:41;17.45;;;8.27;;
20908;SDS011;10614;53.198;6.570;2022-11-15T03:23:45;16.00;;;7.53;;
20908;SDS011;10614;53.198;6.570;2022-11-15T03:25:50;17.42;;;8.35;;
20908;SDS011;10614;53.198;6.570;2022-11-15T03:27:53;21.63;;;9.18;;
20908;SDS011;10614;53.198;6.570;2022-11-15T03:29:59;19.00;;;9.05;;
20908;SDS011;10614;53.198;6.570;2022-11-15T03:32:06;16.38;;;8.00;;
20908;SDS011;10614;53.198;6.570;2022-11-15T03:34:14;18.20;;;7.78;;
20908;SDS011;10614;53.198;6.570;2022-11-15T03:36:23;20.48;;;8.30;;
20908;SDS011;10614;53.198;6.570;2022-11-15T03:38:26;16.75;;;7.40;;
20908;SDS011;10614;53.198;6.570;2022-11-15T03:40:34;18.17;;;8.02;;
20908;SDS011;10614;53.198;6.570;2022-11-15T03:42:41;15.18;;;7.50;;
20908;SDS011;10614;53.198;6.570;2022-11-15T03:44:49;17.30;;;7.88;;
20908;SDS011;10614;53.198;6.570;2022-11-15T03:46:57;20.70;;;7.60;;
20908;SDS011;10614;53.198;6.570;2022-11-15T03:49:05;17.55;;;8.15;;
20908;SDS011;10614;53.198;6.570;2022-11-15T03:51:10;17.92;;;7.78;;
20908;SDS011;10614;53.198;6.570;2022-11-15T03:53:14;18.60;;;8.60;;
20908;SDS011;10614;53.198;6.570;2022-11-15T03:55:16;25.15;;;9.40;;
20908;SDS011;10614;53.198;6.570;2022-11-15T03:57:20;19.45;;;8.32;;
20908;SDS011;10614;53.198;6.570;2022-11-15T03:59:22;16.00;;;7.15;;
20908;SDS011;10614;53.198;6.570;2022-11-15T04:01:24;16.65;;;7.78;;
20908;SDS011;10614;53.198;6.570;2022-11-15T04:03:26;19.30;;;7.70;;
20908;SDS011;10614;53.198;6.570;2022-11-15T04:05:27;20.33;;;7.75;;
20908;SDS011;10614;53.198;6.570;2022-11-15T04:07:29;20.25;;;8.23;;
20908;SDS011;10614;53.198;6.570;2022-11-15T04:09:32;15.98;;;7.13;;
20908;SDS011;10614;53.198;6.570;2022-11-15T04:11:53;15.32;;;7.38;;
20908;SDS011;10614;53.198;6.570;2022-11-15T04:13:55;18.75;;;7.88;;
20908;SDS011;10614;53.198;6.570;2022-11-15T04:15:57;19.50;;;7.93;;
20908;SDS011;10614;53.198;6.570;2022-11-15T04:17:58;17.42;;;7.53;;
20908;SDS011;10614;53.198;6.570;2022-11-15T04:20:00;18.08;;;7.93;;
20908;SDS011;10614;53.198;6.570;2022-11-15T04:22:19;16.48;;;7.43;;
20908;SDS011;10614;53.198;6.570;2022-11-15T04:24:39;16.70;;;7.65;;
20908;SDS011;10614;53.198;6.570;2022-11-15T04:26:41;17.50;;;7.95;;
20908;SDS011;10614;53.198;6.570;2022-11-15T04:28:43;16.98;;;8.23;;
20908;SDS011;10614;53.198;6.570;2022-11-15T04:30:58;20.45;;;9.05;;
20908;SDS011;10614;53.198;6.570;2022-11-15T04:33:00;17.05;;;6.80;;
20908;SDS011;10614;53.198;6.570;2022-11-15T04:35:02;17.27;;;7.75;;
20908;SDS011;10614;53.198;6.570;2022-11-15T04:37:04;18.90;;;7.43;;
20908;SDS011;10614;53.198;6.570;2022-11-15T04:39:15;20.63;;;9.13;;
20908;SDS011;10614;53.198;6.570;2022-11-15T04:41:18;18.85;;;8.02;;
20908;SDS011;10614;53.198;6.570;2022-11-15T04:43:19;20.38;;;8.20;;
20908;SDS011;10614;53.198;6.570;2022-11-15T04:45:21;20.20;;;7.93;;
20908;SDS011;10614;53.198;6.570;2022-11-15T04:47:23;17.27;;;8.05;;
20908;SDS011;10614;53.198;6.570;2022-11-15T04:49:25;18.25;;;8.23;;
20908;SDS011;10614;53.198;6.570;2022-11-15T04:51:26;21.48;;;8.80;;
20908;SDS011;10614;53.198;6.570;2022-11-15T04:53:28;16.02;;;8.07;;
20908;SDS011;10614;53.198;6.570;2022-11-15T04:55:29;19.98;;;7.72;;
20908;SDS011;10614;53.198;6.570;2022-11-15T04:57:32;18.65;;;8.13;;
20908;SDS011;10614;53.198;6.570;2022-11-15T04:59:34;18.63;;;8.20;;
20908;SDS011;10614;53.198;6.570;2022-11-15T05:01:35;27.40;;;8.35;;
20908;SDS011;10614;53.198;6.570;2022-11-15T05:03:37;29.75;;;10.60;;
20908;SDS011;10614;53.198;6.570;2022-11-15T05:05:57;23.77;;;9.43;;
20908;SDS011;10614;53.198;6.570;2022-11-15T05:07:59;17.80;;;8.30;;
20908;SDS011;10614;53.198;6.570;2022-11-15T05:10:00;19.40;;;8.93;;
20908;SDS011;10614;53.198;6.570;2022-11-15T05:12:02;18.65;;;8.32;;
20908;SDS011;10614;53.198;6.570;2022-11-15T05:14:05;21.60;;;9.48;;
20908;SDS011;10614;53.198;6.570;2022-11-15T05:16:07;20.38;;;8.57;;
20908;SDS011;10614;53.198;6.570;2022-11-15T05:18:09;20.83;;;9.27;;
20908;SDS011;10614;53.198;6.570;2022-11-15T05:20:10;20.95;;;8.38;;
20908;SDS011;10614;53.198;6.570;2022-11-15T05:22:12;26.35;;;10.23;;
20908;SDS011;10614;53.198;6.570;2022-11-15T05:24:14;23.10;;;9.13;;
20908;SDS011;10614;53.198;6.570;2022-11-15T05:26:16;22.98;;;10.02;;
20908;SDS011;10614;53.198;6.570;2022-11-15T05:28:19;25.63;;;9.10;;
20908;SDS011;10614;53.198;6.570;2022-11-15T05:30:22;25.55;;;10.73;;
20908;SDS011;10614;53.198;6.570;2022-11-15T05:32:24;21.70;;;9.63;;
20908;SDS011;10614;53.198;6.570;2022-11-15T05:34:26;22.17;;;9.48;;
20908;SDS011;10614;53.198;6.570;2022-11-15T05:36:29;25.88;;;9.77;;
20908;SDS011;10614;53.198;6.570;2022-11-15T05:38:36;26.40;;;10.93;;
20908;SDS011;10614;53.198;6.570;2022-11-15T05:40:37;26.42;;;10.52;;
20908;SDS011;10614;53.198;6.570;2022-11-15T05:42:39;22.65;;;9.98;;
20908;SDS011;10614;53.198;6.570;2022-11-15T05:44:41;23.70;;;10.18;;
20908;SDS011;10614;53.198;6.570;2022-11-15T05:46:49;28.75;;;11.10;;
20908;SDS011;10614;53.198;6.570;2022-11-15T05:48:53;24.50;;;10.82;;
20908;SDS011;10614;53.198;6.570;2022-11-15T05:50:57;24.35;;;10.50;;
20908;SDS011;10614;53.198;6.570;2022-11-15T05:52:59;23.85;;;10.23;;
20908;SDS011;10614;53.198;6.570;2022-11-15T05:55:01;28.15;;;11.77;;
20908;SDS011;10614;53.198;6.570;2022-11-15T05:57:06;23.75;;;10.13;;
20908;SDS011;10614;53.198;6.570;2022-11-15T05:59:08;25.70;;;10.65;;
20908;SDS011;10614;53.198;6.570;2022-11-15T06:01:11;25.98;;;10.07;;
20908;SDS011;10614;53.198;6.570;2022-11-15T06:03:14;27.42;;;11.93;;
20908;SDS011;10614;53.198;6.570;2022-11-15T06:05:16;22.63;;;10.20;;
20908;SDS011;10614;53.198;6.570;2022-11-15T06:07:18;22.10;;;10.07;;
20908;SDS011;10614;53.198;6.570;2022-11-15T06:09:19;25.80;;;10.23;;
20908;SDS011;10614;53.198;6.570;2022-11-15T06:11:21;35.50;;;13.57;;
20908;SDS011;10614;53.198;6.570;2022-11-15T06:13:22;26.08;;;10.68;;
20908;SDS011;10614;53.198;6.570;2022-11-15T06:15:24;26.48;;;10.65;;
20908;SDS011;10614;53.198;6.570;2022-11-15T06:17:26;27.05;;;11.18;;
20908;SDS011;10614;53.198;6.570;2022-11-15T06:19:29;23.95;;;10.75;;
20908;SDS011;10614;53.198;6.570;2022-11-15T06:21:32;33.05;;;13.10;;
20908;SDS011;10614;53.198;6.570;2022-11-15T06:23:34;25.50;;;10.77;;
20908;SDS011;10614;53.198;6.570;2022-11-15T06:25:36;27.38;;;11.40;;
20908;SDS011;10614;53.198;6.570;2022-11-15T06:27:38;25.08;;;10.82;;
20908;SDS011;10614;53.198;6.570;2022-11-15T06:29:39;27.48;;;11.25;;
20908;SDS011;10614;53.198;6.570;2022-11-15T06:31:41;21.27;;;10.57;;
20908;SDS011;10614;53.198;6.570;2022-11-15T06:33:42;22.75;;;10.45;;
20908;SDS011;10614;53.198;6.570;2022-11-15T06:35:45;24.63;;;11.65;;
20908;SDS011;10614;53.198;6.570;2022-11-15T06:37:47;27.02;;;11.32;;
20908;SDS011;10614;53.198;6.570;2022-11-15T06:39:49;25.23;;;11.25;;
20908;SDS011;10614;53.198;6.570;2022-11-15T06:41:50;25.90;;;12.77;;
20908;SDS011;10614;53.198;6.570;2022-11-15T06:43:52;24.90;;;11.38;;
20908;SDS011;10614;53.198;6.570;2022-11-15T06:45:54;24.73;;;11.45;;
20908;SDS011;10614;53.198;6.570;2022-11-15T06:47:55;26.70;;;11.35;;
20908;SDS011;10614;53.198;6.570;2022-11-15T06:49:57;23.65;;;11.13;;
20908;SDS011;10614;53.198;6.570;2022-11-15T06:52:01;20.95;;;11.43;;
20908;SDS011;10614;53.198;6.570;2022-11-15T06:54:02;25.45;;;12.10;;
20908;SDS011;10614;53.198;6.570;2022-11-15T06:56:05;24.00;;;10.82;;
20908;SDS011;10614;53.198;6.570;2022-11-15T06:58:07;24.98;;;9.93;;
20908;SDS011;10614;53.198;6.570;2022-11-15T07:00:10;26.08;;;12.25;;
20908;SDS011;10614;53.198;6.570;2022-11-15T07:02:12;26.60;;;10.77;;
20908;SDS011;10614;53.198;6.570;2022-11-15T07:04:14;23.95;;;10.65;;
20908;SDS011;10614;53.198;6.570;2022-11-15T07:06:16;27.75;;;11.73;;
20908;SDS011;10614;53.198;6.570;2022-11-15T07:08:19;23.42;;;10.80;;
20908;SDS011;10614;53.198;6.570;2022-11-15T07:10:21;24.65;;;10.25;;
20908;SDS011;10614;53.198;6.570;2022-11-15T07:12:24;25.63;;;10.82;;
20908;SDS011;10614;53.198;6.570;2022-11-15T07:14:25;25.67;;;11.40;;
20908;SDS011;10614;53.198;6.570;2022-11-15T07:16:27;23.92;;;11.20;;
20908;SDS011;10614;53.198;6.570;2022-11-15T07:18:29;22.38;;;10.32;;
20908;SDS011;10614;53.198;6.570;2022-11-15T07:20:31;25.33;;;11.38;;
20908;SDS011;10614;53.198;6.570;2022-11-15T07:22:34;27.55;;;11.18;;
20908;SDS011;10614;53.198;6.570;2022-11-15T07:24:38;25.58;;;11.18;;
20908;SDS011;10614;53.198;6.570;2022-11-15T07:26:40;25.63;;;11.52;;
20908;SDS011;10614;53.198;6.570;2022-11-15T07:28:42;22.73;;;10.98;;
20908;SDS011;10614;53.198;6.570;2022-11-15T07:30:43;24.90;;;11.35;;
20908;SDS011;10614;53.198;6.570;2022-11-15T07:32:45;30.05;;;12.95;;
20908;SDS011;10614;53.198;6.570;2022-11-15T07:34:47;25.75;;;11.32;;
20908;SDS011;10614;53.198;6.570;2022-11-15T07:36:49;23.48;;;10.98;;
20908;SDS011;10614;53.198;6.570;2022-11-15T07:38:50;23.45;;;10.60;;
20908;SDS011;10614;53.198;6.570;2022-11-15T07:40:56;27.85;;;11.65;;
20908;SDS011;10614;53.198;6.570;2022-11-15T07:42:59;26.67;;;11.27;;
20908;SDS011;10614;53.198;6.570;2022-11-15T07:45:01;23.75;;;10.40;;
20908;SDS011;10614;53.198;6.570;2022-11-15T07:47:04;20.65;;;10.82;;
20908;SDS011;10614;53.198;6.570;2022-11-15T07:49:05;24.13;;;11.18;;
20908;SDS011;10614;53.198;6.570;2022-11-15T07:51:09;19.05;;;8.50;;
20908;SDS011;10614;53.198;6.570;2022-11-15T07:53:12;20.85;;;10.60;;
20908;SDS011;10614;53.198;6.570;2022-11-15T07:55:13;24.70;;;10.50;;
20908;SDS011;10614;53.198;6.570;2022-11-15T07:57:16;27.25;;;11.40;;
20908;SDS011;10614;53.198;6.570;2022-11-15T07:59:18;21.85;;;10.52;;
20908;SDS011;10614;53.198;6.570;2022-11-15T08:01:20;21.10;;;9.82;;
20908;SDS011;10614;53.198;6.570;2022-11-15T08:03:22;24.38;;;10.60;;
20908;SDS011;10614;53.198;6.570;2022-11-15T08:05:23;22.20;;;10.25;;
20908;SDS011;10614;53.198;6.570;2022-11-15T08:07:27;23.08;;;10.68;;
20908;SDS011;10614;53.198;6.570;2022-11-15T08:09:29;22.30;;;10.85;;
20908;SDS011;10614;53.198;6.570;2022-11-15T08:11:31;23.10;;;10.30;;
20908;SDS011;10614;53.198;6.570;2022-11-15T08:13:34;24.55;;;11.02;;
20908;SDS011;10614;53.198;6.570;2022-11-15T08:15:36;22.65;;;10.65;;
20908;SDS011;10614;53.198;6.570;2022-11-15T08:17:38;19.75;;;9.43;;
20908;SDS011;10614;53.198;6.570;2022-11-15T08:19:40;22.25;;;10.10;;
20908;SDS011;10614;53.198;6.570;2022-11-15T08:21:41;23.85;;;11.20;;
20908;SDS011;10614;53.198;6.570;2022-11-15T08:23:43;21.42;;;9.82;;
20908;SDS011;10614;53.198;6.570;2022-11-15T08:25:44;23.15;;;10.52;;
20908;SDS011;10614;53.198;6.570;2022-11-15T08:27:46;25.55;;;11.48;;
20908;SDS011;10614;53.198;6.570;2022-11-15T08:29:49;24.17;;;10.98;;
20908;SDS011;10614;53.198;6.570;2022-11-15T08:31:51;23.23;;;10.43;;
20908;SDS011;10614;53.198;6.570;2022-11-15T08:33:55;24.75;;;11.50;;
20908;SDS011;10614;53.198;6.570;2022-11-15T08:35:57;21.80;;;11.10;;
20908;SDS011;10614;53.198;6.570;2022-11-15T08:37:59;22.65;;;10.68;;
20908;SDS011;10614;53.198;6.570;2022-11-15T08:40:01;21.20;;;10.77;;
20908;SDS011;10614;53.198;6.570;2022-11-15T08:42:02;18.90;;;9.43;;
20908;SDS011;10614;53.198;6.570;2022-11-15T08:44:04;20.35;;;9.88;;
20908;SDS011;10614;53.198;6.570;2022-11-15T08:46:08;20.40;;;9.68;;
20908;SDS011;10614;53.198;6.570;2022-11-15T08:48:13;22.17;;;10.02;;
20908;SDS011;10614;53.198;6.570;2022-11-15T08:50:15;20.13;;;10.23;;
20908;SDS011;10614;53.198;6.570;2022-11-15T08:52:17;22.95;;;9.65;;
20908;SDS011;10614;53.198;6.570;2022-11-15T08:54:19;20.08;;;10.00;;
20908;SDS011;10614;53.198;6.570;2022-11-15T08:56:21;22.25;;;9.45;;
20908;SDS011;10614;53.198;6.570;2022-11-15T08:58:23;16.40;;;9.00;;
20908;SDS011;10614;53.198;6.570;2022-11-15T09:00:25;16.77;;;9.43;;
20908;SDS011;10614;53.198;6.570;2022-11-15T09:02:28;19.83;;;9.73;;
20908;SDS011;10614;53.198;6.570;2022-11-15T09:04:29;19.63;;;10.15;;
20908;SDS011;10614;53.198;6.570;2022-11-15T09:06:31;19.98;;;9.40;;
20908;SDS011;10614;53.198;6.570;2022-11-15T09:08:33;19.65;;;9.77;;
20908;SDS011;10614;53.198;6.570;2022-11-15T09:10:34;16.73;;;8.57;;
20908;SDS011;10614;53.198;6.570;2022-11-15T09:12:36;16.38;;;8.30;;
20908;SDS011;10614;53.198;6.570;2022-11-15T09:14:38;18.23;;;8.23;;
20908;SDS011;10614;53.198;6.570;2022-11-15T09:16:39;20.20;;;9.07;;
20908;SDS011;10614;53.198;6.570;2022-11-15T09:18:43;21.80;;;10.05;;
20908;SDS011;10614;53.198;6.570;2022-11-15T09:20:44;20.25;;;9.45;;
20908;SDS011;10614;53.198;6.570;2022-11-15T09:22:46;18.95;;;8.93;;
20908;SDS011;10614;53.198;6.570;2022-11-15T09:24:48;20.20;;;9.20;;
20908;SDS011;10614;53.198;6.570;2022-11-15T09:26:49;15.60;;;8.43;;
20908;SDS011;10614;53.198;6.570;2022-11-15T09:28:52;16.27;;;9.57;;
20908;SDS011;10614;53.198;6.570;2022-11-15T09:30:55;16.20;;;8.65;;
20908;SDS011;10614;53.198;6.570;2022-11-15T09:33:05;18.08;;;8.88;;
20908;SDS011;10614;53.198;6.570;2022-11-15T09:35:09;16.77;;;7.97;;
20908;SDS011;10614;53.198;6.570;2022-11-15T09:37:11;18.60;;;9.25;;
20908;SDS011;10614;53.198;6.570;2022-11-15T09:39:13;18.48;;;8.98;;
20908;SDS011;10614;53.198;6.570;2022-11-15T09:41:20;15.20;;;8.18;;
20908;SDS011;10614;53.198;6.570;2022-11-15T09:43:32;16.75;;;9.00;;
20908;SDS011;10614;53.198;6.570;2022-11-15T09:45:42;18.25;;;8.70;;
20908;SDS011;10614;53.198;6.570;2022-11-15T09:50:34;18.67;;;8.82;;
20908;SDS011;10614;53.198;6.570;2022-11-15T09:52:41;17.10;;;8.90;;
20908;SDS011;10614;53.198;6.570;2022-11-15T09:54:46;17.42;;;7.75;;
20908;SDS011;10614;53.198;6.570;2022-11-15T09:56:50;17.00;;;8.32;;
20908;SDS011;10614;53.198;6.570;2022-11-15T09:58:55;18.08;;;8.02;;
20908;SDS011;10614;53.198;6.570;2022-11-15T10:01:04;18.13;;;8.63;;
20908;SDS011;10614;53.198;6.570;2022-11-15T10:03:10;15.77;;;7.68;;
20908;SDS011;10614;53.198;6.570;2022-11-15T10:05:14;16.25;;;8.38;;
20908;SDS011;10614;53.198;6.570;2022-11-15T10:07:21;15.77;;;8.00;;
20908;SDS011;10614;53.198;6.570;2022-11-15T10:09:29;15.90;;;8.18;;
20908;SDS011;10614;53.198;6.570;2022-11-15T10:11:37;18.02;;;8.68;;
20908;SDS011;10614;53.198;6.570;2022-11-15T10:13:41;18.30;;;7.75;;
20908;SDS011;10614;53.198;6.570;2022-11-15T10:15:44;17.63;;;8.05;;
20908;SDS011;10614;53.198;6.570;2022-11-15T10:20:17;15.05;;;7.53;;
20908;SDS011;10614;53.198;6.570;2022-11-15T10:22:26;17.27;;;7.65;;
20908;SDS011;10614;53.198;6.570;2022-11-15T10:24:31;14.13;;;7.30;;
20908;SDS011;10614;53.198;6.570;2022-11-15T10:26:36;14.98;;;7.13;;
20908;SDS011;10614;53.198;6.570;2022-11-15T10:28:38;14.65;;;8.07;;
20908;SDS011;10614;53.198;6.570;2022-11-15T10:30:40;13.13;;;6.93;;
20908;SDS011;10614;53.198;6.570;2022-11-15T10:32:43;15.50;;;7.38;;
20908;SDS011;10614;53.198;6.570;2022-11-15T10:34:47;17.13;;;8.00;;
20908;SDS011;10614;53.198;6.570;2022-11-15T10:36:54;14.43;;;7.53;;
20908;SDS011;10614;53.198;6.570;2022-11-15T10:38:58;16.23;;;7.53;;
20908;SDS011;10614;53.198;6.570;2022-11-15T10:41:06;12.88;;;7.07;;
20908;SDS011;10614;53.198;6.570;2022-11-15T10:43:13;15.80;;;7.13;;
20908;SDS011;10614;53.198;6.570;2022-11-15T10:45:24;15.60;;;7.30;;
20908;SDS011;10614;53.198;6.570;2022-11-15T10:47:31;15.98;;;8.13;;
20908;SDS011;10614;53.198;6.570;2022-11-15T10:49:33;14.10;;;7.20;;
20908;SDS011;10614;53.198;6.570;2022-11-15T10:51:38;14.90;;;7.68;;
20908;SDS011;10614;53.198;6.570;2022-11-15T10:53:44;13.60;;;7.38;;
20908;SDS011;10614;53.198;6.570;2022-11-15T10:55:49;16.58;;;7.30;;
20908;SDS011;10614;53.198;6.570;2022-11-15T10:57:55;17.08;;;7.78;;
20908;SDS011;10614;53.198;6.570;2022-11-15T11:00:02;14.45;;;8.00;;
20908;SDS011;10614;53.198;6.570;2022-11-15T11:04:30;15.85;;;7.32;;
20908;SDS011;10614;53.198;6.570;2022-11-15T11:06:51;16.35;;;8.00;;
20908;SDS011;10614;53.198;6.570;2022-11-15T11:08:55;15.07;;;7.13;;
20908;SDS011;10614;53.198;6.570;2022-11-15T11:11:00;13.88;;;7.20;;
20908;SDS011;10614;53.198;6.570;2022-11-15T11:13:13;12.57;;;6.95;;
20908;SDS011;10614;53.198;6.570;2022-11-15T11:15:16;15.35;;;8.27;;
20908;SDS011;10614;53.198;6.570;2022-11-15T11:17:21;14.90;;;7.25;;
20908;SDS011;10614;53.198;6.570;2022-11-15T11:22:05;16.58;;;8.25;;
20908;SDS011;10614;53.198;6.570;2022-11-15T11:24:14;16.63;;;8.35;;
20908;SDS011;10614;53.198;6.570;2022-11-15T11:26:38;15.07;;;8.00;;
20908;SDS011;10614;53.198;6.570;2022-11-15T11:28:45;16.17;;;7.63;;
20908;SDS011;10614;53.198;6.570;2022-11-15T11:30:57;15.98;;;8.02;;
20908;SDS011;10614;53.198;6.570;2022-11-15T11:33:12;15.13;;;8.07;;
20908;SDS011;10614;53.198;6.570;2022-11-15T11:35:19;15.77;;;7.97;;
20908;SDS011;10614;53.198;6.570;2022-11-15T11:37:27;16.50;;;8.68;;
20908;SDS011;10614;53.198;6.570;2022-11-15T11:39:38;14.45;;;7.78;;
20908;SDS011;10614;53.198;6.570;2022-11-15T11:41:53;13.77;;;6.63;;
20908;SDS011;10614;53.198;6.570;2022-11-15T11:44:05;13.32;;;6.97;;
20908;SDS011;10614;53.198;6.570;2022-11-15T11:46:23;14.60;;;7.60;;
20908;SDS011;10614;53.198;6.570;2022-11-15T11:48:40;12.52;;;6.95;;
20908;SDS011;10614;53.198;6.570;2022-11-15T11:50:43;12.80;;;6.78;;
20908;SDS011;10614;53.198;6.570;2022-11-15T11:52:52;13.00;;;6.60;;
20908;SDS011;10614;53.198;6.570;2022-11-15T11:54:59;12.90;;;6.78;;
20908;SDS011;10614;53.198;6.570;2022-11-15T11:57:11;12.88;;;6.47;;
20908;SDS011;10614;53.198;6.570;2022-11-15T11:59:21;11.48;;;5.78;;
20908;SDS011;10614;53.198;6.570;2022-11-15T12:01:30;11.93;;;5.95;;
20908;SDS011;10614;53.198;6.570;2022-11-15T12:03:38;10.32;;;6.10;;
20908;SDS011;10614;53.198;6.570;2022-11-15T12:05:44;10.38;;;5.57;;
20908;SDS011;10614;53.198;6.570;2022-11-15T12:07:51;10.68;;;5.47;;
20908;SDS011;10614;53.198;6.570;2022-11-15T12:09:58;7.75;;;5.00;;
20908;SDS011;10614;53.198;6.570;2022-11-15T12:12:05;10.60;;;5.47;;
20908;SDS011;10614;53.198;6.570;2022-11-15T12:14:17;10.13;;;4.97;;
20908;SDS011;10614;53.198;6.570;2022-11-15T12:16:28;10.73;;;4.78;;
20908;SDS011;10614;53.198;6.570;2022-11-15T12:18:32;10.23;;;5.40;;
20908;SDS011;10614;53.198;6.570;2022-11-15T12:20:34;10.25;;;4.47;;
20908;SDS011;10614;53.198;6.570;2022-11-15T12:22:41;9.63;;;5.00;;
20908;SDS011;10614;53.198;6.570;2022-11-15T12:24:48;9.65;;;4.22;;
20908;SDS011;10614;53.198;6.570;2022-11-15T12:26:57;6.60;;;3.80;;
20908;SDS011;10614;53.198;6.570;2022-11-15T12:29:05;8.55;;;4.05;;